Terminal Aerodrome Forecast
Issued by NWS Atlanta, GA

Home | Current Version | Previous Version | Text Only | Print | Product List | Glossary On
Versions: 1 2 3 4 5 6 7 8 9 10 11 12 13 14 15 16 17 18 19 20 21
000
FTUS42 KFFC 242328
TAFMCN
TAF
KMCN 242328Z 2500/2524 18004KT P6SM SCT060
     FM251000 22003KT 4SM BR BKN015
     FM251400 24007KT P6SM BKN025 PROB30 2514/2516 5SM -SHRA BR
      BKN012
     FM251600 26009G16KT P6SM SCT025 BKN060
     FM251800 29014G24KT P6SM FEW060=

USA.gov is the U.S. government's official web portal to all federal, state and local government web resources and services.